createdAt,value
2022-11-19T00:00:31.222Z,98096.34
2022-11-19T00:02:04.555Z,98102.59
2022-11-19T00:03:39.327Z,98107.19
2022-11-19T00:05:12.504Z,98096.84
2022-11-19T00:06:45.625Z,98109.25
2022-11-19T00:08:20.966Z,98099.25
2022-11-19T00:09:54.084Z,98108.41
2022-11-19T00:11:46.349Z,98111.16
2022-11-19T00:13:20.959Z,98113.25
2022-11-19T00:14:53.208Z,98111.81
2022-11-19T00:16:26.317Z,98125.75
2022-11-19T00:18:00.523Z,98122.13
2022-11-19T00:19:33.741Z,98137.94
2022-11-19T00:21:08.689Z,98129.41
2022-11-19T00:22:42.788Z,98146.00
2022-11-19T00:24:16.041Z,98131.44
2022-11-19T00:25:49.296Z,98138.78
2022-11-19T00:27:22.622Z,98147.69
2022-11-19T00:28:57.242Z,98146.66
2022-11-19T00:30:47.609Z,98163.44
2022-11-19T00:32:21.733Z,98161.53
2022-11-19T00:33:55.790Z,98165.31
2022-11-19T00:35:27.923Z,98167.41
2022-11-19T00:37:01.319Z,98169.34
2022-11-19T00:38:34.984Z,98177.28
2022-11-19T00:40:11.924Z,98186.94
2022-11-19T00:41:45.103Z,98189.59
2022-11-19T00:43:35.983Z,98197.75
2022-11-19T00:45:11.748Z,98211.38
2022-11-19T00:46:44.974Z,98205.97
2022-11-19T00:48:17.282Z,98198.88
2022-11-19T00:49:50.617Z,98210.44
2022-11-19T00:51:24.110Z,98206.84
2022-11-19T00:52:57.383Z,98213.94
2022-11-19T00:54:30.533Z,98206.84
2022-11-19T00:56:04.822Z,98207.59
2022-11-19T00:57:38.000Z,98204.94
2022-11-19T00:59:11.578Z,98212.69
2022-11-19T01:00:45.274Z,98219.59
2022-11-19T01:02:18.728Z,98225.78
2022-11-19T01:03:52.183Z,98219.16
2022-11-19T01:05:25.594Z,98229.19
2022-11-19T01:06:58.763Z,98232.59
2022-11-19T01:08:31.625Z,98248.50
2022-11-19T01:10:05.278Z,98246.81
2022-11-19T01:11:39.722Z,98253.63
2022-11-19T01:13:30.240Z,98260.81
2022-11-19T01:15:03.488Z,98261.78
2022-11-19T01:16:39.845Z,98265.75
2022-11-19T01:18:13.127Z,98251.94
2022-11-19T01:19:46.249Z,98257.97
2022-11-19T01:21:21.266Z,98262.06
2022-11-19T01:22:53.414Z,98269.81
2022-11-19T01:24:26.629Z,98272.19
2022-11-19T01:25:59.738Z,98271.25
2022-11-19T01:27:33.090Z,98269.38
2022-11-19T01:29:06.262Z,98269.28
2022-11-19T01:30:40.886Z,98270.88
2022-11-19T01:32:15.371Z,98267.44
2022-11-19T01:33:49.542Z,98268.50
2022-11-19T01:35:21.720Z,98261.50
2022-11-19T01:36:55.025Z,98252.31
2022-11-19T01:38:28.178Z,98258.75
2022-11-19T01:40:01.461Z,98247.28
2022-11-19T01:41:35.008Z,98251.75
2022-11-19T01:43:10.962Z,98245.75
2022-11-19T01:45:03.622Z,98250.22
2022-11-19T01:46:39.813Z,98255.50
2022-11-19T01:48:18.922Z,98253.81
2022-11-19T01:49:52.510Z,98258.16
2022-11-19T01:51:30.482Z,98251.34
2022-11-19T01:53:02.831Z,98243.78
2022-11-19T01:54:40.269Z,98248.31
2022-11-19T01:56:13.427Z,98257.16
2022-11-19T01:57:46.998Z,98250.78
2022-11-19T01:59:21.093Z,98259.31
2022-11-19T02:00:54.549Z,98261.88
2022-11-19T02:02:26.898Z,98255.72
2022-11-19T02:04:03.214Z,98259.41
2022-11-19T02:05:37.386Z,98264.63
2022-11-19T02:07:12.704Z,98259.13
2022-11-19T02:08:47.529Z,98259.53
2022-11-19T02:10:20.502Z,98278.47
2022-11-19T02:12:10.738Z,98273.91
2022-11-19T02:13:49.891Z,98280.16
2022-11-19T02:15:33.503Z,98278.47
2022-11-19T02:17:16.601Z,98280.16
2022-11-19T02:18:55.953Z,98282.81
2022-11-19T02:20:46.867Z,98286.34
2022-11-19T02:22:38.393Z,98294.19
2022-11-19T02:24:35.839Z,98303.94
2022-11-19T02:26:50.335Z,98309.72
2022-11-19T02:28:34.640Z,98295.44
2022-11-19T02:30:11.149Z,98293.34
2022-11-19T02:31:52.705Z,98304.81
2022-11-19T02:33:35.387Z,98304.03
2022-11-19T02:35:18.773Z,98325.34
2022-11-19T02:36:59.184Z,98326.41
2022-11-19T02:38:39.037Z,98317.66
2022-11-19T02:40:19.338Z,98326.22
2022-11-19T02:42:00.849Z,98328.56
2022-11-19T02:43:41.129Z,98320.53
2022-11-19T02:45:19.681Z,98320.34
2022-11-19T02:46:55.071Z,98308.03
2022-11-19T02:48:33.950Z,98312.38
2022-11-19T02:50:11.794Z,98320.00
2022-11-19T02:51:49.212Z,98318.19
2022-11-19T02:53:23.122Z,98314.69
2022-11-19T02:54:55.753Z,98316.50
2022-11-19T02:56:51.523Z,98320.00
2022-11-19T02:58:38.972Z,98331.13
2022-11-19T03:00:31.409Z,98329.78
2022-11-19T03:02:25.115Z,98333.78
2022-11-19T03:04:16.252Z,98339.28
2022-11-19T03:05:54.727Z,98325.63
2022-11-19T03:07:28.102Z,98337.94
2022-11-19T03:09:02.160Z,98334.69
2022-11-19T03:10:45.694Z,98335.81
2022-11-19T03:12:29.902Z,98352.69
2022-11-19T03:14:31.089Z,98354.69
2022-11-19T03:16:27.392Z,98351.34
2022-11-19T03:18:12.399Z,98356.00
2022-11-19T03:19:51.686Z,98361.28
2022-11-19T03:21:31.341Z,98337.88
2022-11-19T03:23:09.964Z,98345.56
2022-11-19T03:24:46.882Z,98352.06
2022-11-19T03:26:24.819Z,98348.84
2022-11-19T03:28:02.523Z,98363.22
2022-11-19T03:29:39.844Z,98374.16
2022-11-19T03:31:14.212Z,98371.88
2022-11-19T03:32:52.608Z,98387.03
2022-11-19T03:34:31.582Z,98388.13
2022-11-19T03:36:09.900Z,98392.66
2022-11-19T03:37:46.071Z,98405.16
2022-11-19T03:39:21.994Z,98403.41
2022-11-19T03:40:56.558Z,98415.75
2022-11-19T03:42:30.827Z,98417.63
2022-11-19T03:44:08.759Z,98434.09
2022-11-19T03:45:45.058Z,98456.25
2022-11-19T03:47:23.914Z,98468.75
2022-11-19T03:48:58.755Z,98473.03
2022-11-19T03:50:40.488Z,98463.63
2022-11-19T03:52:16.269Z,98477.88
2022-11-19T03:53:50.226Z,98487.34
2022-11-19T03:55:29.570Z,98478.28
2022-11-19T03:57:03.799Z,98484.47
2022-11-19T03:58:39.852Z,98492.16
2022-11-19T04:00:13.775Z,98485.16
2022-11-19T04:01:52.034Z,98497.31
2022-11-19T04:03:25.340Z,98514.03
2022-11-19T04:04:57.496Z,98514.13
2022-11-19T04:06:32.123Z,98504.63
2022-11-19T04:08:05.542Z,98506.38
2022-11-19T04:09:38.412Z,98499.16
2022-11-19T04:12:50.410Z,98500.94
2022-11-19T04:14:22.565Z,98497.78
2022-11-19T04:15:55.887Z,98502.34
2022-11-19T04:17:27.992Z,98498.91
2022-11-19T04:19:01.197Z,98497.38
2022-11-19T04:20:34.460Z,98498.47
2022-11-19T04:22:09.250Z,98507.53
2022-11-19T04:23:41.384Z,98511.31
2022-11-19T04:25:14.615Z,98529.69
2022-11-19T04:26:46.945Z,98518.31
2022-11-19T04:28:20.233Z,98519.56
2022-11-19T04:29:53.522Z,98516.94
2022-11-19T04:31:26.709Z,98509.13
2022-11-19T04:32:59.869Z,98495.06
2022-11-19T04:34:33.106Z,98516.34
2022-11-19T04:36:06.980Z,98519.81
2022-11-19T04:37:41.547Z,98524.44
2022-11-19T04:39:14.667Z,98531.44
2022-11-19T04:40:47.346Z,98537.78
2022-11-19T04:42:20.483Z,98542.28
2022-11-19T04:43:52.667Z,98551.97
2022-11-19T04:45:25.830Z,98552.03
2022-11-19T04:46:59.788Z,98551.25
2022-11-19T04:48:31.999Z,98551.25
2022-11-19T04:50:05.686Z,98558.44
2022-11-19T04:51:38.812Z,98558.44
2022-11-19T04:53:12.543Z,98569.03
2022-11-19T04:54:45.678Z,98562.00
2022-11-19T04:56:17.951Z,98562.88
2022-11-19T04:57:51.952Z,98563.88
2022-11-19T04:59:25.326Z,98576.19
2022-11-19T05:00:57.464Z,98590.47
2022-11-19T05:02:30.707Z,98590.00
2022-11-19T05:04:03.844Z,98600.75
2022-11-19T05:05:36.159Z,98595.69
2022-11-19T05:07:09.341Z,98596.75
2022-11-19T05:08:43.918Z,98604.38
2022-11-19T05:10:16.103Z,98601.81
2022-11-19T05:11:49.458Z,98585.88
2022-11-19T05:13:22.648Z,98615.59
2022-11-19T05:14:55.855Z,98595.38
2022-11-19T05:16:29.046Z,98605.81
2022-11-19T05:18:01.346Z,98610.16
2022-11-19T05:19:34.547Z,98609.50
2022-11-19T05:21:07.962Z,98615.06
2022-11-19T05:22:41.089Z,98625.94
2022-11-19T05:24:15.781Z,98628.81
2022-11-19T05:25:49.082Z,98629.28
2022-11-19T05:27:21.310Z,98636.41
2022-11-19T05:28:54.452Z,98640.81
2022-11-19T05:30:26.686Z,98655.72
2022-11-19T05:31:59.848Z,98647.00
2022-11-19T05:33:34.546Z,98660.00
2022-11-19T05:35:08.914Z,98664.28
2022-11-19T05:36:42.306Z,98666.03
2022-11-19T05:38:15.427Z,98680.88
2022-11-19T05:39:49.991Z,98674.72
2022-11-19T05:41:23.174Z,98680.03
2022-11-19T05:42:56.477Z,98694.19
2022-11-19T05:44:29.683Z,98690.59
2022-11-19T05:46:03.292Z,98702.91
2022-11-19T05:47:35.453Z,98697.59
2022-11-19T05:49:08.762Z,98694.88
2022-11-19T05:50:42.543Z,98701.19
2022-11-19T05:52:14.731Z,98697.78
2022-11-19T05:53:47.958Z,98687.34
2022-11-19T05:55:22.696Z,98688.25
2022-11-19T05:56:55.873Z,98697.06
2022-11-19T05:58:29.194Z,98694.34
2022-11-19T06:00:02.303Z,98707.41
2022-11-19T06:01:45.436Z,98718.06
2022-11-19T06:03:18.651Z,98727.66
2022-11-19T06:04:50.840Z,98727.50
2022-11-19T06:06:25.526Z,98740.13
2022-11-19T06:07:59.138Z,98746.38
2022-11-19T06:09:31.323Z,98756.06
2022-11-19T06:11:06.007Z,98765.63
2022-11-19T06:12:42.476Z,98765.44
2022-11-19T06:14:22.145Z,98761.69
2022-11-19T06:15:55.274Z,98765.97
2022-11-19T06:17:28.487Z,98770.06
2022-11-19T06:19:01.595Z,98770.41
2022-11-19T06:20:34.886Z,98775.38
2022-11-19T06:22:08.040Z,98767.16
2022-11-19T06:23:41.258Z,98774.66
2022-11-19T06:25:14.927Z,98782.16
2022-11-19T06:26:49.682Z,98782.78
2022-11-19T06:28:22.776Z,98782.25
2022-11-19T06:29:56.485Z,98784.81
2022-11-19T06:31:29.864Z,98783.25
2022-11-19T06:33:03.162Z,98777.41
2022-11-19T06:34:36.321Z,98790.72
2022-11-19T06:36:10.430Z,98777.56
2022-11-19T06:37:43.587Z,98798.81
2022-11-19T06:39:17.316Z,98798.53
2022-11-19T06:40:50.564Z,98792.94
2022-11-19T06:42:37.412Z,98789.50
2022-11-19T06:44:10.607Z,98800.66
2022-11-19T06:45:43.842Z,98798.66
2022-11-19T06:47:17.067Z,98820.31
2022-11-19T06:48:50.327Z,98823.50
2022-11-19T06:50:23.426Z,98821.31
2022-11-19T06:51:55.739Z,98822.66
2022-11-19T06:53:28.973Z,98815.81
2022-11-19T06:55:02.365Z,98818.91
2022-11-19T06:56:35.483Z,98825.03
2022-11-19T06:58:10.591Z,98818.16
2022-11-19T06:59:43.747Z,98815.94
2022-11-19T07:01:17.053Z,98829.63
2022-11-19T07:02:50.208Z,98823.94
2022-11-19T07:04:23.617Z,98837.34
2022-11-19T07:06:00.223Z,98848.94
2022-11-19T07:07:33.428Z,98830.00
2022-11-19T07:09:06.655Z,98837.56
2022-11-19T07:10:40.033Z,98834.75
2022-11-19T07:12:13.202Z,98840.31
2022-11-19T07:14:00.209Z,98840.34
2022-11-19T07:15:33.559Z,98838.66
2022-11-19T07:17:07.011Z,98825.13
2022-11-19T07:18:39.397Z,98825.34
2022-11-19T07:20:12.911Z,98828.94
2022-11-19T07:21:46.394Z,98831.56
2022-11-19T07:23:20.396Z,98835.03
2022-11-19T07:24:53.512Z,98834.53
2022-11-19T07:26:27.052Z,98830.78
2022-11-19T07:28:00.227Z,98832.91
2022-11-19T07:29:34.855Z,98825.50
2022-11-19T07:31:08.509Z,98820.31
2022-11-19T07:32:41.837Z,98829.44
2022-11-19T07:34:14.931Z,98832.38
2022-11-19T07:35:48.256Z,98830.41
2022-11-19T07:37:21.450Z,98839.25
2022-11-19T07:38:54.611Z,98812.44
2022-11-19T07:40:27.844Z,98804.75
2022-11-19T07:42:18.871Z,98798.78
2022-11-19T07:43:57.558Z,98795.56
2022-11-19T07:45:32.131Z,98800.13
2022-11-19T07:47:07.505Z,98802.53
2022-11-19T07:48:40.929Z,98807.88
2022-11-19T07:50:14.278Z,98805.03
2022-11-19T07:51:47.712Z,98811.69
2022-11-19T07:53:20.862Z,98806.94
2022-11-19T07:54:54.280Z,98807.00
2022-11-19T07:56:27.543Z,98820.75
2022-11-19T07:58:00.860Z,98818.88
2022-11-19T07:59:34.054Z,98815.56
2022-11-19T08:01:13.077Z,98809.41
2022-11-19T08:02:46.308Z,98816.28
2022-11-19T08:04:19.529Z,98809.47
2022-11-19T08:05:52.659Z,98812.06
2022-11-19T08:07:26.132Z,98810.13
2022-11-19T08:08:59.321Z,98814.94
2022-11-19T08:10:32.541Z,98810.88
2022-11-19T08:12:06.134Z,98813.41
2022-11-19T08:13:40.529Z,98815.81
2022-11-19T08:15:13.645Z,98817.44
2022-11-19T08:17:05.549Z,98817.00
2022-11-19T08:18:39.448Z,98806.19
2022-11-19T08:20:13.057Z,98805.50
2022-11-19T08:21:48.077Z,98804.38
2022-11-19T08:23:21.478Z,98812.31
2022-11-19T08:24:54.611Z,98806.19
2022-11-19T08:26:28.072Z,98812.84
2022-11-19T08:28:01.291Z,98814.09
2022-11-19T08:29:34.544Z,98810.81
2022-11-19T08:31:08.863Z,98820.88
2022-11-19T08:32:43.592Z,98816.94
2022-11-19T08:34:17.983Z,98822.06
2022-11-19T08:35:55.773Z,98829.16
2022-11-19T08:37:28.950Z,98826.59
2022-11-19T08:39:04.119Z,98827.22
2022-11-19T08:40:37.893Z,98824.66
2022-11-19T08:42:28.748Z,98817.25
2022-11-19T08:44:01.185Z,98833.13
2022-11-19T08:45:36.145Z,98827.34
2022-11-19T08:47:08.335Z,98828.09
2022-11-19T08:48:42.929Z,98824.94
2022-11-19T08:50:16.750Z,98832.88
2022-11-19T08:51:50.272Z,98828.50
2022-11-19T08:53:23.439Z,98824.09
2022-11-19T08:54:56.618Z,98823.97
2022-11-19T08:56:29.781Z,98815.88
2022-11-19T08:58:03.720Z,98828.91
2022-11-19T08:59:36.879Z,98818.72
2022-11-19T09:01:11.591Z,98811.06
2022-11-19T09:02:44.886Z,98811.84
2022-11-19T09:04:19.860Z,98814.97
2022-11-19T09:06:00.026Z,98808.44
2022-11-19T09:07:33.342Z,98818.63
2022-11-19T09:09:06.533Z,98816.94
2022-11-19T09:10:39.967Z,98818.72
2022-11-19T09:12:13.241Z,98826.31
2022-11-19T09:13:46.577Z,98820.38
2022-11-19T09:15:20.119Z,98811.06
2022-11-19T09:16:53.523Z,98818.84
2022-11-19T09:18:26.755Z,98823.50
2022-11-19T09:20:01.452Z,98811.31
2022-11-19T09:21:34.571Z,98815.28
2022-11-19T09:23:08.043Z,98822.06
2022-11-19T09:24:41.199Z,98812.78
2022-11-19T09:26:17.099Z,98815.09
2022-11-19T09:27:50.238Z,98806.63
2022-11-19T09:29:23.602Z,98813.72
2022-11-19T09:30:57.972Z,98811.75
2022-11-19T09:32:31.189Z,98816.06
2022-11-19T09:34:04.386Z,98810.00
2022-11-19T09:35:39.547Z,98812.44
2022-11-19T09:37:12.702Z,98809.28
2022-11-19T09:38:46.241Z,98813.44
2022-11-19T09:40:23.283Z,98808.91
2022-11-19T09:42:02.397Z,98808.53
2022-11-19T09:43:44.675Z,98813.63
2022-11-19T09:45:23.689Z,98811.66
2022-11-19T09:47:05.347Z,98805.06
2022-11-19T09:48:40.299Z,98802.16
2022-11-19T09:50:19.201Z,98798.00
2022-11-19T09:51:58.593Z,98794.09
2022-11-19T09:53:35.975Z,98794.09
2022-11-19T09:55:19.962Z,98781.19
2022-11-19T09:57:01.754Z,98785.81
2022-11-19T09:58:41.574Z,98780.97
2022-11-19T10:00:19.886Z,98783.75
2022-11-19T10:01:53.793Z,98788.22
2022-11-19T10:03:33.133Z,98779.03
2022-11-19T10:05:08.124Z,98793.97
2022-11-19T10:06:50.232Z,98792.50
2022-11-19T10:08:37.741Z,98784.88
2022-11-19T10:10:24.356Z,98795.41
2022-11-19T10:12:12.420Z,98795.44
2022-11-19T10:13:56.969Z,98798.16
2022-11-19T10:15:38.197Z,98796.72
2022-11-19T10:17:23.461Z,98793.22
2022-11-19T10:19:07.781Z,98792.38
2022-11-19T10:20:54.289Z,98802.63
2022-11-19T10:22:36.062Z,98795.03
2022-11-19T10:24:18.454Z,98802.59
2022-11-19T10:25:59.770Z,98790.06
2022-11-19T10:27:40.923Z,98787.28
2022-11-19T10:29:18.281Z,98790.19
2022-11-19T10:30:55.321Z,98784.38
2022-11-19T10:32:33.495Z,98777.91
2022-11-19T10:34:14.282Z,98776.31
2022-11-19T10:35:51.896Z,98769.72
2022-11-19T10:37:28.321Z,98775.31
2022-11-19T10:39:08.440Z,98786.53
2022-11-19T10:40:46.713Z,98773.72
2022-11-19T10:42:24.394Z,98762.03
2022-11-19T10:44:04.092Z,98767.38
2022-11-19T10:45:37.508Z,98760.97
2022-11-19T10:47:17.672Z,98757.78
2022-11-19T10:48:53.515Z,98762.53
2022-11-19T10:50:27.379Z,98767.03
2022-11-19T10:52:00.689Z,98765.09
2022-11-19T10:53:36.896Z,98754.34
2022-11-19T10:55:18.585Z,98749.72
2022-11-19T10:56:55.319Z,98744.13
2022-11-19T10:58:33.595Z,98751.19
2022-11-19T11:00:07.867Z,98758.97
2022-11-19T11:01:44.573Z,98751.69
2022-11-19T11:03:25.017Z,98746.31
2022-11-19T11:05:12.463Z,98748.88
2022-11-19T11:06:54.496Z,98744.75
2022-11-19T11:08:27.724Z,98725.84
2022-11-19T11:10:00.877Z,98740.75
2022-11-19T11:11:48.994Z,98727.84
2022-11-19T11:13:57.260Z,98720.50
2022-11-19T11:15:30.494Z,98729.06
2022-11-19T11:17:05.147Z,98712.47
2022-11-19T11:18:40.832Z,98725.03
2022-11-19T11:20:27.316Z,98718.25
2022-11-19T11:22:01.386Z,98730.03
2022-11-19T11:23:34.526Z,98731.72
2022-11-19T11:25:20.616Z,98739.50
2022-11-19T11:27:20.241Z,98741.88
2022-11-19T11:29:01.363Z,98732.88
2022-11-19T11:30:35.911Z,98743.97
2022-11-19T11:32:28.581Z,98743.19
2022-11-19T11:34:02.736Z,98741.47
2022-11-19T11:35:38.784Z,98734.50
2022-11-19T11:37:13.107Z,98734.63
2022-11-19T11:38:48.895Z,98716.63
2022-11-19T11:40:23.260Z,98724.28
2022-11-19T11:42:06.607Z,98719.50
2022-11-19T11:44:01.368Z,98719.50
2022-11-19T11:45:38.382Z,98723.44
2022-11-19T11:47:14.029Z,98727.09
2022-11-19T11:48:50.394Z,98724.44
2022-11-19T11:50:27.171Z,98728.59
2022-11-19T11:52:08.437Z,98717.91
2022-11-19T11:53:43.028Z,98730.94
2022-11-19T11:55:31.731Z,98720.00
2022-11-19T11:57:16.023Z,98722.31
2022-11-19T11:58:49.272Z,98725.47
2022-11-19T12:00:37.159Z,98718.97
2022-11-19T12:02:21.180Z,98719.59
2022-11-19T12:03:56.550Z,98723.50
2022-11-19T12:05:35.447Z,98731.28
2022-11-19T12:07:17.631Z,98731.75
2022-11-19T12:08:58.952Z,98741.50
2022-11-19T12:10:41.793Z,98733.19
2022-11-19T12:12:24.635Z,98737.91
2022-11-19T12:14:09.519Z,98740.47
2022-11-19T12:15:55.520Z,98726.06
2022-11-19T12:17:41.724Z,98721.41
2022-11-19T12:19:32.509Z,98724.47
2022-11-19T12:21:11.978Z,98722.00
2022-11-19T12:23:10.526Z,98707.63
2022-11-19T12:24:59.367Z,98716.47
2022-11-19T12:26:42.264Z,98707.66
2022-11-19T12:28:54.068Z,98707.66
2022-11-19T12:30:33.460Z,98712.81
2022-11-19T12:32:22.382Z,98716.50
2022-11-19T12:34:12.076Z,98707.44
2022-11-19T12:35:55.861Z,98715.56
2022-11-19T12:37:48.109Z,98709.97
2022-11-19T12:39:34.016Z,98705.22
2022-11-19T12:41:54.153Z,98698.47
2022-11-19T12:43:52.703Z,98694.53
2022-11-19T12:45:38.059Z,98696.03
2022-11-19T12:47:23.539Z,98692.50
2022-11-19T12:49:16.853Z,98699.72
2022-11-19T12:50:58.588Z,98703.78
2022-11-19T12:52:54.948Z,98707.31
2022-11-19T12:54:42.705Z,98714.06
2022-11-19T12:56:31.499Z,98716.25
2022-11-19T12:58:16.123Z,98706.28
2022-11-19T13:00:14.027Z,98706.53
2022-11-19T13:01:51.347Z,98703.13
2022-11-19T13:03:37.659Z,98711.31
2022-11-19T13:05:15.938Z,98705.81
2022-11-19T13:06:53.300Z,98711.78
2022-11-19T13:08:33.672Z,98722.16
2022-11-19T13:10:14.744Z,98716.78
2022-11-19T13:11:54.579Z,98718.47
2022-11-19T13:13:30.848Z,98717.88
2022-11-19T13:15:07.663Z,98708.97
2022-11-19T13:16:42.866Z,98713.84
2022-11-19T13:18:18.901Z,98716.81
2022-11-19T13:19:57.341Z,98709.72
2022-11-19T13:21:36.560Z,98712.81
2022-11-19T13:23:16.860Z,98716.84
2022-11-19T13:24:55.751Z,98720.47
2022-11-19T13:26:33.195Z,98710.28
2022-11-19T13:28:15.898Z,98715.13
2022-11-19T13:29:54.240Z,98712.00
2022-11-19T13:31:34.543Z,98707.63
2022-11-19T13:33:15.356Z,98710.06
2022-11-19T13:35:02.781Z,98719.56
2022-11-19T13:36:42.899Z,98724.44
2022-11-19T13:38:23.572Z,98730.03
2022-11-19T13:40:04.433Z,98739.53
2022-11-19T13:42:01.699Z,98746.59
2022-11-19T13:43:53.388Z,98732.69
2022-11-19T13:45:26.832Z,98738.56
2022-11-19T13:47:01.794Z,98731.00
2022-11-19T13:48:39.741Z,98734.53
2022-11-19T13:50:19.645Z,98734.88
2022-11-19T13:51:56.926Z,98742.88
2022-11-19T13:53:35.564Z,98746.63
2022-11-19T13:55:27.845Z,98754.00
2022-11-19T13:57:02.500Z,98754.69
2022-11-19T13:58:38.567Z,98755.16
2022-11-19T14:00:24.855Z,98746.22
2022-11-19T14:02:27.498Z,98745.31
2022-11-19T14:04:26.871Z,98733.28
2022-11-19T14:06:32.514Z,98754.31
2022-11-19T14:08:26.949Z,98756.47
2022-11-19T14:10:09.494Z,98756.06
2022-11-19T14:12:10.825Z,98754.56
2022-11-19T14:14:01.796Z,98757.13
2022-11-19T14:16:03.227Z,98760.16
2022-11-19T14:18:01.419Z,98767.63
2022-11-19T14:20:07.674Z,98759.00
2022-11-19T14:22:22.549Z,98771.19
2022-11-19T14:24:27.634Z,98765.22
2022-11-19T14:26:21.949Z,98765.94
2022-11-19T14:27:55.193Z,98763.50
2022-11-19T14:29:58.709Z,98775.34
2022-11-19T14:31:31.977Z,98762.22
2022-11-19T14:33:43.751Z,98768.00
2022-11-19T14:35:40.144Z,98783.50
2022-11-19T14:37:18.472Z,98781.56
2022-11-19T14:38:55.459Z,98780.09
2022-11-19T14:40:31.138Z,98789.91
2022-11-19T14:42:15.112Z,98776.69
2022-11-19T14:44:08.432Z,98792.16
2022-11-19T14:45:41.667Z,98798.69
2022-11-19T14:47:36.201Z,98799.09
2022-11-19T14:49:24.637Z,98801.22
2022-11-19T14:51:06.303Z,98800.03
2022-11-19T14:52:50.593Z,98795.00
2022-11-19T14:54:40.991Z,98790.66
2022-11-19T14:56:15.703Z,98795.00
2022-11-19T14:57:57.875Z,98794.38
2022-11-19T14:59:35.646Z,98792.03
2022-11-19T15:01:16.747Z,98798.63
2022-11-19T15:02:55.370Z,98804.84
2022-11-19T15:04:33.670Z,98802.16
2022-11-19T15:06:09.481Z,98808.22
2022-11-19T15:07:45.608Z,98796.06
2022-11-19T15:09:52.817Z,98821.97
2022-11-19T15:11:46.259Z,98801.50
2022-11-19T15:13:28.263Z,98805.41
2022-11-19T15:15:32.756Z,98807.53
2022-11-19T15:17:07.510Z,98798.56
2022-11-19T15:19:17.386Z,98813.66
2022-11-19T15:21:12.152Z,98798.81
2022-11-19T15:22:55.634Z,98797.84
2022-11-19T15:24:42.708Z,98797.50
2022-11-19T15:26:22.949Z,98795.38
2022-11-19T15:28:03.748Z,98793.47
2022-11-19T15:29:58.211Z,98801.88
2022-11-19T15:31:45.483Z,98811.28
2022-11-19T15:33:43.312Z,98805.84
2022-11-19T15:35:57.193Z,98799.72
2022-11-19T15:37:40.876Z,98797.25
2022-11-19T15:39:18.666Z,98800.91
2022-11-19T15:40:56.301Z,98819.03
2022-11-19T15:42:35.904Z,98814.97
2022-11-19T15:44:14.228Z,98794.13
2022-11-19T15:45:53.352Z,98800.97
2022-11-19T15:47:34.855Z,98814.97
2022-11-19T15:49:15.704Z,98810.69
2022-11-19T15:50:49.748Z,98810.59
2022-11-19T15:52:27.448Z,98816.88
2022-11-19T15:54:04.147Z,98809.19
2022-11-19T15:55:37.907Z,98804.69
2022-11-19T15:57:23.418Z,98809.19
2022-11-19T15:58:57.383Z,98805.56
2022-11-19T16:00:30.568Z,98802.13
2022-11-19T16:02:07.186Z,98805.75
2022-11-19T16:03:41.047Z,98805.94
2022-11-19T16:05:21.270Z,98799.97
2022-11-19T16:06:55.923Z,98795.72
2022-11-19T16:08:29.890Z,98789.69
2022-11-19T16:10:05.801Z,98796.28
2022-11-19T16:11:56.848Z,98798.22
2022-11-19T16:13:47.761Z,98789.25
2022-11-19T16:15:41.415Z,98786.78
2022-11-19T16:17:43.181Z,98809.47
2022-11-19T16:19:19.055Z,98797.31
2022-11-19T16:20:53.911Z,98811.59
2022-11-19T16:22:27.392Z,98813.50
2022-11-19T16:24:16.243Z,98794.38
2022-11-19T16:25:51.917Z,98811.59
2022-11-19T16:27:26.489Z,98825.88
2022-11-19T16:29:02.681Z,98827.59
2022-11-19T16:30:47.023Z,98823.22
2022-11-19T16:32:22.406Z,98827.78
2022-11-19T16:33:56.047Z,98829.66
2022-11-19T16:35:31.652Z,98843.78
2022-11-19T16:37:04.939Z,98831.41
2022-11-19T16:38:40.529Z,98840.16
2022-11-19T16:40:16.957Z,98837.47
2022-11-19T16:42:14.307Z,98825.88
2022-11-19T16:43:49.665Z,98826.81
2022-11-19T16:45:25.188Z,98831.22
2022-11-19T16:47:05.308Z,98832.16
2022-11-19T16:49:03.585Z,98833.97
2022-11-19T16:50:41.139Z,98842.06
2022-11-19T16:52:42.380Z,98850.81
2022-11-19T16:54:46.687Z,98856.31
2022-11-19T16:56:20.227Z,98854.44
2022-11-19T16:57:56.570Z,98838.81
2022-11-19T16:59:29.859Z,98844.38
2022-11-19T17:01:04.074Z,98840.94
2022-11-19T17:02:40.706Z,98834.84
2022-11-19T17:04:15.607Z,98831.25
2022-11-19T17:05:52.002Z,98837.50
2022-11-19T17:07:27.946Z,98838.56
2022-11-19T17:09:02.349Z,98839.41
2022-11-19T17:10:35.530Z,98835.97
2022-11-19T17:12:25.109Z,98829.13
2022-11-19T17:14:00.096Z,98834.19
2022-11-19T17:15:36.893Z,98829.81
2022-11-19T17:17:40.952Z,98834.09
2022-11-19T17:19:16.859Z,98829.81
2022-11-19T17:20:55.268Z,98818.47
2022-11-19T17:22:32.439Z,98822.09
2022-11-19T17:24:06.467Z,98797.06
2022-11-19T17:25:46.951Z,98814.88
2022-11-19T17:27:28.093Z,98818.47
2022-11-19T17:29:12.403Z,98812.50
2022-11-19T17:30:49.263Z,98809.16
2022-11-19T17:32:22.476Z,98814.31
2022-11-19T17:33:57.327Z,98806.50
2022-11-19T17:35:34.223Z,98810.03
2022-11-19T17:37:10.027Z,98825.28
2022-11-19T17:38:43.282Z,98835.41
2022-11-19T17:40:16.615Z,98832.00
2022-11-19T17:42:07.476Z,98833.69
2022-11-19T17:44:13.338Z,98825.91
2022-11-19T17:45:47.938Z,98805.53
2022-11-19T17:47:23.805Z,98807.44
2022-11-19T17:48:58.062Z,98802.09
2022-11-19T17:50:31.242Z,98805.91
2022-11-19T17:52:04.579Z,98819.31
2022-11-19T17:53:37.709Z,98828.38
2022-11-19T17:55:18.936Z,98827.81
2022-11-19T17:56:52.159Z,98839.13
2022-11-19T17:58:25.561Z,98837.31
2022-11-19T17:59:58.733Z,98838.28
2022-11-19T18:01:33.432Z,98850.81
2022-11-19T18:03:06.720Z,98859.09
2022-11-19T18:04:39.900Z,98848.66
2022-11-19T18:06:13.980Z,98855.22
2022-11-19T18:07:47.491Z,98857.28
2022-11-19T18:09:21.012Z,98856.72
2022-11-19T18:10:54.416Z,98854.41
2022-11-19T18:12:27.592Z,98843.09
2022-11-19T18:14:03.217Z,98842.22
2022-11-19T18:15:36.542Z,98846.69
2022-11-19T18:17:13.478Z,98842.59
2022-11-19T18:18:47.048Z,98852.41
2022-11-19T18:20:20.287Z,98855.91
2022-11-19T18:21:53.979Z,98855.16
2022-11-19T18:23:27.164Z,98861.22
2022-11-19T18:25:00.339Z,98873.91
2022-11-19T18:26:33.609Z,98880.03
2022-11-19T18:28:06.892Z,98874.88
2022-11-19T18:29:40.076Z,98871.09
2022-11-19T18:31:16.489Z,98865.00
2022-11-19T18:32:51.167Z,98868.41
2022-11-19T18:34:25.459Z,98867.75
2022-11-19T18:35:58.637Z,98871.88
2022-11-19T18:37:32.209Z,98880.97
2022-11-19T18:39:05.519Z,98866.03
2022-11-19T18:40:39.043Z,98874.66
2022-11-19T18:42:12.975Z,98878.84
2022-11-19T18:44:03.398Z,98866.41
2022-11-19T18:45:36.688Z,98871.22
2022-11-19T18:47:12.478Z,98861.59
2022-11-19T18:48:47.299Z,98863.44
2022-11-19T18:50:21.842Z,98868.13
2022-11-19T18:51:56.678Z,98866.44
2022-11-19T18:53:29.907Z,98867.31
2022-11-19T18:55:03.144Z,98866.59
2022-11-19T18:56:36.301Z,98868.34
2022-11-19T18:58:09.605Z,98871.75
2022-11-19T18:59:43.028Z,98870.03
2022-11-19T19:01:17.286Z,98863.84
2022-11-19T19:02:50.699Z,98861.13
2022-11-19T19:04:25.616Z,98854.09
2022-11-19T19:06:01.848Z,98859.59
2022-11-19T19:07:35.939Z,98859.59
2022-11-19T19:09:10.461Z,98861.47
2022-11-19T19:10:43.695Z,98857.88
2022-11-19T19:12:18.853Z,98869.44
2022-11-19T19:13:52.064Z,98858.06
2022-11-19T19:15:25.230Z,98861.66
2022-11-19T19:16:58.610Z,98860.09